Aérodrome :
LOGIN :

S'inscrire | Disclaimer

   EN    FR    IT 

 










Légende :    VFR   VFR Marginal   IFR   IFR Intensif   IFR Très Intensif
Visi : 
Plafond : 
>= 8 km
>= 3000ft
5 à 8 km
1000 à 3000 ft
1500m à 5 km
500 à 1000 ft
800 à 1500m
200 à 500 ft
< 800m
< 200 ft
Symboles :   Orages  Brouillard  Fortes neiges  Fortes précipitations  Vent > 20 kt
SIGMETs :   Divers  Orages  Givrage  Turbulence  Onde Orograph.  Cendres Volcan.







- Altitude de l'aérodrome : 1260 ft
- Code IATA : LDE
- Voir les cartes d'approche


LFBT - Tarbes / Ossun

DERNIER METAR :
  • 192000Z AUTO 18003KT 9999 FEW037 BKN044 11/09 Q1026 NOSIG

METARs EXPIRÉS :
  • 191930Z AUTO 22005KT CAVOK 10/08 Q1026 NOSIG
  • 191900Z AUTO 22003KT 190V260 CAVOK 11/08 Q1025 NOSIG
  • 191830Z AUTO 21005KT CAVOK 12/08 Q1025 NOSIG
  • 191800Z AUTO 29005KT CAVOK 14/08 Q1024 NOSIG
  • 191730Z AUTO 29005KT CAVOK 16/08 Q1024 NOSIG

TAF TAF LFBT
Valide du 19 à 18h jusqu'au 20 à 18h UTC


191700Z 1918/2018 27008KT 9999 SCT030
BECMG 1918/1920 VRB03KT
BECMG 2009/2011 07008KT
Pas de NOTAMs connus pour ce terrain.



MET'MAP, la Météo Aéronautique d'un coup d'oeil ! - Copyright ORBIFLY Décembre 2007 - Disclaimer

ORBIFLY MET'MAP TEAM :

Programmation & Développement : Alexandra Zaïnal
Conception & Développement : Baudouin d'Aumeries
Co-Programmation & Développement : Marc-Olivier Méhu
Soutien technique & logistique : Manuel Goepfert

Contact : metmap@orbifly.com




SOURCES & CREDITS :

   NOAA